sensor_id;sensor_type;location;lat;lon;timestamp;pressure;altitude;pressure_sealevel;temperature;humidity
26083;BME280;13848;49.018;12.078;2023-02-03T00:02:21;98596.41;;;2.52;87.10
26083;BME280;13848;49.018;12.078;2023-02-03T00:04:47;98593.75;;;2.52;87.04
26083;BME280;13848;49.018;12.078;2023-02-03T00:07:14;98592.91;;;2.51;87.25
26083;BME280;13848;49.018;12.078;2023-02-03T00:09:40;98593.75;;;2.52;87.42
26083;BME280;13848;49.018;12.078;2023-02-03T00:12:06;98601.81;;;2.60;87.13
26083;BME280;13848;49.018;12.078;2023-02-03T00:14:33;98586.16;;;2.57;87.12
26083;BME280;13848;49.018;12.078;2023-02-03T00:16:59;98583.91;;;2.62;87.09
26083;BME280;13848;49.018;12.078;2023-02-03T00:19:26;98592.31;;;2.57;87.02
26083;BME280;13848;49.018;12.078;2023-02-03T00:21:52;98583.19;;;2.60;87.23
26083;BME280;13848;49.018;12.078;2023-02-03T00:24:18;98578.25;;;2.65;87.00
26083;BME280;13848;49.018;12.078;2023-02-03T00:26:44;98594.53;;;2.62;87.29
26083;BME280;13848;49.018;12.078;2023-02-03T00:29:10;98578.25;;;2.65;87.45
26083;BME280;13848;49.018;12.078;2023-02-03T00:31:37;98581.31;;;2.70;87.25
26083;BME280;13848;49.018;12.078;2023-02-03T00:34:02;98577.97;;;2.68;87.75
26083;BME280;13848;49.018;12.078;2023-02-03T00:36:30;98579.00;;;2.85;88.32
26083;BME280;13848;49.018;12.078;2023-02-03T00:38:56;98574.94;;;2.99;88.31
26083;BME280;13848;49.018;12.078;2023-02-03T00:41:22;98573.72;;;3.11;88.07
26083;BME280;13848;49.018;12.078;2023-02-03T00:43:48;98573.28;;;3.15;87.92
26083;BME280;13848;49.018;12.078;2023-02-03T00:46:14;98570.16;;;3.20;88.25
26083;BME280;13848;49.018;12.078;2023-02-03T00:48:40;98571.88;;;3.29;89.04
26083;BME280;13848;49.018;12.078;2023-02-03T00:51:06;98566.09;;;3.34;90.17
26083;BME280;13848;49.018;12.078;2023-02-03T00:53:34;98575.25;;;3.31;91.24
26083;BME280;13848;49.018;12.078;2023-02-03T00:55:59;98574.94;;;3.34;91.04
26083;BME280;13848;49.018;12.078;2023-02-03T00:58:25;98570.66;;;3.41;91.21
26083;BME280;13848;49.018;12.078;2023-02-03T01:00:53;98577.69;;;3.42;91.35
26083;BME280;13848;49.018;12.078;2023-02-03T01:03:19;98584.91;;;3.50;91.37
26083;BME280;13848;49.018;12.078;2023-02-03T01:05:45;98576.06;;;3.50;91.57
26083;BME280;13848;49.018;12.078;2023-02-03T01:08:11;98569.41;;;3.54;91.16
26083;BME280;13848;49.018;12.078;2023-02-03T01:10:38;98568.81;;;3.60;91.15
26083;BME280;13848;49.018;12.078;2023-02-03T01:13:04;98558.81;;;3.62;90.54
26083;BME280;13848;49.018;12.078;2023-02-03T01:15:30;98566.00;;;3.61;91.16
26083;BME280;13848;49.018;12.078;2023-02-03T01:17:56;98560.50;;;3.63;90.92
26083;BME280;13848;49.018;12.078;2023-02-03T01:20:22;98559.44;;;3.56;91.05
26083;BME280;13848;49.018;12.078;2023-02-03T01:22:48;98560.13;;;3.58;90.84
26083;BME280;13848;49.018;12.078;2023-02-03T01:25:14;98560.50;;;3.63;90.59
26083;BME280;13848;49.018;12.078;2023-02-03T01:27:42;98565.38;;;3.67;90.87
26083;BME280;13848;49.018;12.078;2023-02-03T01:30:09;98563.16;;;3.63;90.65
26083;BME280;13848;49.018;12.078;2023-02-03T01:32:35;98571.81;;;3.65;91.21
26083;BME280;13848;49.018;12.078;2023-02-03T01:35:01;98565.16;;;3.61;91.03
26083;BME280;13848;49.018;12.078;2023-02-03T01:37:26;98562.16;;;3.64;91.18
26083;BME280;13848;49.018;12.078;2023-02-03T01:39:52;98568.50;;;3.63;90.85
26083;BME280;13848;49.018;12.078;2023-02-03T01:42:18;98570.69;;;3.67;90.54
26083;BME280;13848;49.018;12.078;2023-02-03T01:44:50;98571.53;;;3.68;90.32
26083;BME280;13848;49.018;12.078;2023-02-03T01:47:22;98563.16;;;3.63;90.20
26083;BME280;13848;49.018;12.078;2023-02-03T01:49:54;98557.19;;;3.69;90.00
26083;BME280;13848;49.018;12.078;2023-02-03T01:52:21;98551.03;;;3.68;90.49
26083;BME280;13848;49.018;12.078;2023-02-03T01:54:49;98550.50;;;3.65;90.75
26083;BME280;13848;49.018;12.078;2023-02-03T01:57:20;98546.53;;;3.69;90.69
26083;BME280;13848;49.018;12.078;2023-02-03T01:59:47;98541.81;;;3.63;90.57
26083;BME280;13848;49.018;12.078;2023-02-03T02:02:15;98541.81;;;3.63;90.40
26083;BME280;13848;49.018;12.078;2023-02-03T02:04:47;98547.50;;;3.60;91.07
26083;BME280;13848;49.018;12.078;2023-02-03T02:07:15;98538.50;;;3.61;90.95
26083;BME280;13848;49.018;12.078;2023-02-03T02:09:42;98545.16;;;3.65;90.73
26083;BME280;13848;49.018;12.078;2023-02-03T02:12:08;98531.50;;;3.60;91.24
26083;BME280;13848;49.018;12.078;2023-02-03T02:14:35;98527.50;;;3.64;90.90
26083;BME280;13848;49.018;12.078;2023-02-03T02:17:05;98520.50;;;3.63;91.05
26083;BME280;13848;49.018;12.078;2023-02-03T02:19:57;98517.16;;;3.61;91.51
26083;BME280;13848;49.018;12.078;2023-02-03T02:22:35;98509.00;;;3.62;90.92
26083;BME280;13848;49.018;12.078;2023-02-03T02:25:26;98497.16;;;3.65;91.58
26083;BME280;13848;49.018;12.078;2023-02-03T02:31:42;98490.22;;;3.72;91.01
26083;BME280;13848;49.018;12.078;2023-02-03T02:34:13;98491.16;;;3.63;91.61
26083;BME280;13848;49.018;12.078;2023-02-03T02:36:49;98488.88;;;3.68;91.35
26083;BME280;13848;49.018;12.078;2023-02-03T02:39:23;98479.41;;;3.73;91.45
26083;BME280;13848;49.018;12.078;2023-02-03T02:41:55;98474.41;;;3.79;91.15
26083;BME280;13848;49.018;12.078;2023-02-03T02:44:25;98475.25;;;3.79;91.40
26083;BME280;13848;49.018;12.078;2023-02-03T02:46:59;98475.91;;;3.81;90.75
26083;BME280;13848;49.018;12.078;2023-02-03T02:49:29;98478.28;;;3.84;90.99
26083;BME280;13848;49.018;12.078;2023-02-03T02:51:59;98479.94;;;3.77;91.36
26083;BME280;13848;49.018;12.078;2023-02-03T02:54:27;98472.59;;;3.79;92.18
26083;BME280;13848;49.018;12.078;2023-02-03T02:56:58;98477.13;;;3.87;91.37
26083;BME280;13848;49.018;12.078;2023-02-03T02:59:25;98475.44;;;3.86;91.24
26083;BME280;13848;49.018;12.078;2023-02-03T03:01:51;98478.66;;;3.89;91.37
26083;BME280;13848;49.018;12.078;2023-02-03T03:04:20;98480.31;;;3.90;92.10
26083;BME280;13848;49.018;12.078;2023-02-03T03:06:51;98476.34;;;3.94;91.85
26083;BME280;13848;49.018;12.078;2023-02-03T03:09:20;98467.63;;;3.92;91.82
26083;BME280;13848;49.018;12.078;2023-02-03T03:11:49;98472.50;;;3.97;92.04
26083;BME280;13848;49.018;12.078;2023-02-03T03:14:18;98459.69;;;4.00;91.67
26083;BME280;13848;49.018;12.078;2023-02-03T03:16:47;98481.88;;;4.01;91.89
26083;BME280;13848;49.018;12.078;2023-02-03T03:19:19;98485.72;;;4.07;91.10
26083;BME280;13848;49.018;12.078;2023-02-03T03:21:49;98468.72;;;4.08;91.40
26083;BME280;13848;49.018;12.078;2023-02-03T03:24:20;98453.69;;;4.07;91.92
26083;BME280;13848;49.018;12.078;2023-02-03T03:26:51;98456.72;;;4.12;91.59
26083;BME280;13848;49.018;12.078;2023-02-03T03:29:20;98462.06;;;4.12;91.54
26083;BME280;13848;49.018;12.078;2023-02-03T03:31:49;98458.06;;;4.16;91.80
26083;BME280;13848;49.018;12.078;2023-02-03T03:34:16;98476.09;;;4.22;91.16
26083;BME280;13848;49.018;12.078;2023-02-03T03:36:46;98491.44;;;4.20;90.82
26083;BME280;13848;49.018;12.078;2023-02-03T03:39:21;98497.91;;;4.17;92.01
26083;BME280;13848;49.018;12.078;2023-02-03T03:41:56;98510.78;;;4.22;91.36
26083;BME280;13848;49.018;12.078;2023-02-03T03:44:28;98519.47;;;4.24;91.39
26083;BME280;13848;49.018;12.078;2023-02-03T03:47:02;98525.66;;;4.24;92.04
26083;BME280;13848;49.018;12.078;2023-02-03T03:49:32;98515.47;;;4.28;91.85
26083;BME280;13848;49.018;12.078;2023-02-03T03:52:02;98521.34;;;4.32;91.25
26083;BME280;13848;49.018;12.078;2023-02-03T03:54:31;98511.66;;;4.31;90.98
26083;BME280;13848;49.018;12.078;2023-02-03T03:56:59;98501.81;;;4.31;91.27
26083;BME280;13848;49.018;12.078;2023-02-03T03:59:31;98492.63;;;4.34;91.18
26083;BME280;13848;49.018;12.078;2023-02-03T04:01:59;98486.47;;;4.33;91.49
26083;BME280;13848;49.018;12.078;2023-02-03T04:04:25;98482.31;;;4.31;91.46
26083;BME280;13848;49.018;12.078;2023-02-03T04:06:53;98481.66;;;4.37;91.17
26083;BME280;13848;49.018;12.078;2023-02-03T04:09:20;98520.50;;;4.31;91.22
26083;BME280;13848;49.018;12.078;2023-02-03T04:11:46;98535.72;;;4.39;91.32
26083;BME280;13848;49.018;12.078;2023-02-03T04:14:12;98546.56;;;4.37;90.58
26083;BME280;13848;49.018;12.078;2023-02-03T04:16:38;98547.50;;;4.28;91.41
26083;BME280;13848;49.018;12.078;2023-02-03T04:19:04;98548.88;;;4.40;90.63
26083;BME280;13848;49.018;12.078;2023-02-03T04:21:30;98532.72;;;4.42;91.13
26083;BME280;13848;49.018;12.078;2023-02-03T04:23:55;98534.06;;;4.46;90.64
26083;BME280;13848;49.018;12.078;2023-02-03T04:26:23;98541.75;;;4.41;91.02
26083;BME280;13848;49.018;12.078;2023-02-03T04:28:49;98522.03;;;4.42;90.85
26083;BME280;13848;49.018;12.078;2023-02-03T04:31:15;98524.53;;;4.43;90.81
26083;BME280;13848;49.018;12.078;2023-02-03T04:33:41;98510.03;;;4.46;90.05
26083;BME280;13848;49.018;12.078;2023-02-03T04:36:07;98516.19;;;4.46;90.09
26083;BME280;13848;49.018;12.078;2023-02-03T04:38:33;98517.00;;;4.39;90.81
26083;BME280;13848;49.018;12.078;2023-02-03T04:40:59;98510.53;;;4.41;90.94
26083;BME280;13848;49.018;12.078;2023-02-03T04:43:26;98511.84;;;4.45;90.54
26083;BME280;13848;49.018;12.078;2023-02-03T04:45:52;98511.22;;;4.51;90.66
26083;BME280;13848;49.018;12.078;2023-02-03T04:48:18;98514.88;;;4.50;90.31
26083;BME280;13848;49.018;12.078;2023-02-03T04:50:44;98504.19;;;4.50;90.90
26083;BME280;13848;49.018;12.078;2023-02-03T04:53:10;98495.19;;;4.51;90.74
26083;BME280;13848;49.018;12.078;2023-02-03T04:55:36;98489.84;;;4.51;89.75
26083;BME280;13848;49.018;12.078;2023-02-03T04:58:02;98483.34;;;4.54;89.85
26083;BME280;13848;49.018;12.078;2023-02-03T05:00:29;98484.19;;;4.54;89.67
26083;BME280;13848;49.018;12.078;2023-02-03T05:02:55;98476.00;;;4.56;90.70
26083;BME280;13848;49.018;12.078;2023-02-03T05:05:21;98475.19;;;4.56;89.84
26083;BME280;13848;49.018;12.078;2023-02-03T05:07:47;98468.47;;;4.51;89.85
26083;BME280;13848;49.018;12.078;2023-02-03T05:10:13;98481.69;;;4.53;90.62
26083;BME280;13848;49.018;12.078;2023-02-03T05:12:39;98475.19;;;4.56;90.22
26083;BME280;13848;49.018;12.078;2023-02-03T05:15:06;98462.84;;;4.54;90.63
26083;BME280;13848;49.018;12.078;2023-02-03T05:17:33;98466.81;;;4.50;90.20
26083;BME280;13848;49.018;12.078;2023-02-03T05:19:59;98476.66;;;4.50;90.34
26083;BME280;13848;49.018;12.078;2023-02-03T05:22:25;98486.50;;;4.49;90.42
26083;BME280;13848;49.018;12.078;2023-02-03T05:24:51;98483.34;;;4.54;90.44
26083;BME280;13848;49.018;12.078;2023-02-03T05:27:17;98488.19;;;4.50;89.69
26083;BME280;13848;49.018;12.078;2023-02-03T05:29:42;98490.38;;;4.55;89.85
26083;BME280;13848;49.018;12.078;2023-02-03T05:32:08;98503.88;;;4.53;90.07
26083;BME280;13848;49.018;12.078;2023-02-03T05:34:36;98479.38;;;4.58;89.21
26083;BME280;13848;49.018;12.078;2023-02-03T05:37:01;98470.84;;;4.54;89.60
26083;BME280;13848;49.018;12.078;2023-02-03T05:39:27;98479.50;;;4.57;90.08
26083;BME280;13848;49.018;12.078;2023-02-03T05:41:53;98486.88;;;4.54;89.86
26083;BME280;13848;49.018;12.078;2023-02-03T05:44:19;98478.84;;;4.54;89.75
26083;BME280;13848;49.018;12.078;2023-02-03T05:46:46;98466.66;;;4.52;89.69
26083;BME280;13848;49.018;12.078;2023-02-03T05:49:12;98479.69;;;4.55;89.23
26083;BME280;13848;49.018;12.078;2023-02-03T05:51:40;98491.19;;;4.56;90.23
26083;BME280;13848;49.018;12.078;2023-02-03T05:54:06;98497.53;;;4.54;89.41
26083;BME280;13848;49.018;12.078;2023-02-03T05:56:32;98495.22;;;4.60;89.49
26083;BME280;13848;49.018;12.078;2023-02-03T05:58:58;98496.22;;;4.59;90.09
26083;BME280;13848;49.018;12.078;2023-02-03T06:01:24;98488.22;;;4.59;90.35
26083;BME280;13848;49.018;12.078;2023-02-03T06:03:50;98483.53;;;4.52;90.31
26083;BME280;13848;49.018;12.078;2023-02-03T06:06:17;98490.06;;;4.58;90.17
26083;BME280;13848;49.018;12.078;2023-02-03T06:08:44;98499.88;;;4.58;90.16
26083;BME280;13848;49.018;12.078;2023-02-03T06:11:10;98496.22;;;4.59;90.26
26083;BME280;13848;49.018;12.078;2023-02-03T06:13:37;98495.88;;;4.62;89.62
26083;BME280;13848;49.018;12.078;2023-02-03T06:16:03;98503.22;;;4.60;89.50
26083;BME280;13848;49.018;12.078;2023-02-03T06:18:29;98490.19;;;4.57;90.06
26083;BME280;13848;49.018;12.078;2023-02-03T06:20:56;98488.69;;;4.54;90.60
26083;BME280;13848;49.018;12.078;2023-02-03T06:23:22;98484.19;;;4.54;89.78
26083;BME280;13848;49.018;12.078;2023-02-03T06:25:50;98482.53;;;4.53;90.22
26083;BME280;13848;49.018;12.078;2023-02-03T06:28:16;98480.53;;;4.56;90.52
26083;BME280;13848;49.018;12.078;2023-02-03T06:30:42;98474.50;;;4.53;90.96
26083;BME280;13848;49.018;12.078;2023-02-03T06:33:08;98462.47;;;4.58;90.48
26083;BME280;13848;49.018;12.078;2023-02-03T06:35:35;98444.44;;;4.51;91.52
26083;BME280;13848;49.018;12.078;2023-02-03T06:38:01;98440.59;;;4.46;91.70
26083;BME280;13848;49.018;12.078;2023-02-03T06:40:27;98438.59;;;4.40;91.82
26083;BME280;13848;49.018;12.078;2023-02-03T06:42:54;98436.09;;;4.38;91.17
26083;BME280;13848;49.018;12.078;2023-02-03T06:45:20;98438.59;;;4.32;92.03
26083;BME280;13848;49.018;12.078;2023-02-03T06:47:46;98435.56;;;4.35;92.03
26083;BME280;13848;49.018;12.078;2023-02-03T06:50:13;98438.09;;;4.36;91.35
26083;BME280;13848;49.018;12.078;2023-02-03T06:52:40;98432.06;;;4.34;91.80
26083;BME280;13848;49.018;12.078;2023-02-03T06:55:06;98421.56;;;4.33;92.35
26083;BME280;13848;49.018;12.078;2023-02-03T06:57:33;98414.56;;;4.32;92.20
26083;BME280;13848;49.018;12.078;2023-02-03T07:00:00;98413.38;;;4.34;92.34
26083;BME280;13848;49.018;12.078;2023-02-03T07:02:26;98409.75;;;4.35;92.38
26083;BME280;13848;49.018;12.078;2023-02-03T07:04:52;98405.72;;;4.31;92.06
26083;BME280;13848;49.018;12.078;2023-02-03T07:07:18;98399.06;;;4.35;92.11
26083;BME280;13848;49.018;12.078;2023-02-03T07:09:44;98420.72;;;4.32;92.04
26083;BME280;13848;49.018;12.078;2023-02-03T07:12:10;98402.22;;;4.31;91.87
26083;BME280;13848;49.018;12.078;2023-02-03T07:14:35;98408.75;;;4.36;92.08
26083;BME280;13848;49.018;12.078;2023-02-03T07:17:03;98421.75;;;4.39;91.41
26083;BME280;13848;49.018;12.078;2023-02-03T07:19:29;98428.25;;;4.45;90.71
26083;BME280;13848;49.018;12.078;2023-02-03T07:21:55;98424.44;;;4.47;91.07
26083;BME280;13848;49.018;12.078;2023-02-03T07:24:21;98433.44;;;4.46;91.28
26083;BME280;13848;49.018;12.078;2023-02-03T07:26:47;98430.09;;;4.44;90.42
26083;BME280;13848;49.018;12.078;2023-02-03T07:29:13;98442.13;;;4.48;90.65
26083;BME280;13848;49.018;12.078;2023-02-03T07:31:39;98446.63;;;4.56;90.85
26083;BME280;13848;49.018;12.078;2023-02-03T07:34:06;98437.78;;;4.56;90.19
26083;BME280;13848;49.018;12.078;2023-02-03T07:36:32;98437.78;;;4.64;89.67
26083;BME280;13848;49.018;12.078;2023-02-03T07:38:58;98439.81;;;4.70;89.67
26083;BME280;13848;49.018;12.078;2023-02-03T07:41:24;98444.81;;;4.73;90.03
26083;BME280;13848;49.018;12.078;2023-02-03T07:43:50;98453.84;;;4.72;89.34
26083;BME280;13848;49.018;12.078;2023-02-03T07:46:16;98441.50;;;4.71;88.87
26083;BME280;13848;49.018;12.078;2023-02-03T07:48:41;98449.16;;;4.74;89.41
26083;BME280;13848;49.018;12.078;2023-02-03T07:51:09;98453.50;;;4.75;88.95
26083;BME280;13848;49.018;12.078;2023-02-03T07:53:35;98450.81;;;4.75;88.87
26083;BME280;13848;49.018;12.078;2023-02-03T07:56:02;98437.47;;;4.75;87.96
26083;BME280;13848;49.018;12.078;2023-02-03T07:58:28;98436.63;;;4.74;87.43
26083;BME280;13848;49.018;12.078;2023-02-03T08:00:55;98437.31;;;4.76;87.87
26083;BME280;13848;49.018;12.078;2023-02-03T08:03:21;98428.47;;;4.76;88.29
26083;BME280;13848;49.018;12.078;2023-02-03T08:05:48;98438.97;;;4.77;87.35
26083;BME280;13848;49.018;12.078;2023-02-03T08:08:15;98434.47;;;4.78;87.58
26083;BME280;13848;49.018;12.078;2023-02-03T08:10:41;98441.66;;;4.77;87.75
26083;BME280;13848;49.018;12.078;2023-02-03T08:13:07;98469.19;;;4.78;87.35
26083;BME280;13848;49.018;12.078;2023-02-03T08:15:33;98464.88;;;4.77;87.86
26083;BME280;13848;49.018;12.078;2023-02-03T08:17:59;98444.81;;;4.81;87.38
26083;BME280;13848;49.018;12.078;2023-02-03T08:20:25;98438.81;;;4.79;87.77
26083;BME280;13848;49.018;12.078;2023-02-03T08:22:51;98434.81;;;4.83;87.07
26083;BME280;13848;49.018;12.078;2023-02-03T08:25:19;98437.31;;;4.76;87.88
26083;BME280;13848;49.018;12.078;2023-02-03T08:27:45;98449.19;;;4.82;87.12
26083;BME280;13848;49.018;12.078;2023-02-03T08:30:12;98460.53;;;4.84;86.63
26083;BME280;13848;49.018;12.078;2023-02-03T08:32:39;98441.16;;;4.90;86.64
26083;BME280;13848;49.018;12.078;2023-02-03T08:35:06;98451.84;;;4.90;86.77
26083;BME280;13848;49.018;12.078;2023-02-03T08:37:32;98447.81;;;4.86;86.20
26083;BME280;13848;49.018;12.078;2023-02-03T08:39:58;98431.47;;;4.89;86.69
26083;BME280;13848;49.018;12.078;2023-02-03T08:42:26;98426.28;;;4.96;86.31
26083;BME280;13848;49.018;12.078;2023-02-03T08:44:52;98423.09;;;4.92;86.69
26083;BME280;13848;49.018;12.078;2023-02-03T08:47:17;98409.09;;;4.90;86.63
26083;BME280;13848;49.018;12.078;2023-02-03T08:49:43;98429.13;;;4.94;86.48
26083;BME280;13848;49.018;12.078;2023-02-03T08:52:11;98423.28;;;4.99;86.28
26083;BME280;13848;49.018;12.078;2023-02-03T08:54:37;98419.94;;;4.97;86.41
26083;BME280;13848;49.018;12.078;2023-02-03T08:57:03;98434.47;;;4.94;86.40
26083;BME280;13848;49.018;12.078;2023-02-03T08:59:30;98423.13;;;5.00;86.24
26083;BME280;13848;49.018;12.078;2023-02-03T09:01:56;98408.94;;;5.00;85.79
26083;BME280;13848;49.018;12.078;2023-02-03T09:04:23;98425.13;;;5.06;86.08
26083;BME280;13848;49.018;12.078;2023-02-03T09:06:49;98422.13;;;5.01;86.30
26083;BME280;13848;49.018;12.078;2023-02-03T09:09:16;98418.09;;;5.05;86.61
26083;BME280;13848;49.018;12.078;2023-02-03T09:11:42;98422.13;;;5.01;85.77
26083;BME280;13848;49.018;12.078;2023-02-03T09:14:08;98436.31;;;5.02;86.32
26083;BME280;13848;49.018;12.078;2023-02-03T09:16:35;98422.13;;;5.01;85.68
26083;BME280;13848;49.018;12.078;2023-02-03T09:19:01;98428.47;;;5.00;86.47
26083;BME280;13848;49.018;12.078;2023-02-03T09:21:27;98419.25;;;5.03;85.67
26083;BME280;13848;49.018;12.078;2023-02-03T09:23:53;98420.44;;;5.00;85.71
26083;BME280;13848;49.018;12.078;2023-02-03T09:26:19;98409.59;;;5.02;86.32
26083;BME280;13848;49.018;12.078;2023-02-03T09:28:45;98411.44;;;5.01;86.35
26083;BME280;13848;49.018;12.078;2023-02-03T09:31:13;98413.91;;;5.03;86.32
26083;BME280;13848;49.018;12.078;2023-02-03T09:33:40;98427.44;;;5.10;85.75
26083;BME280;13848;49.018;12.078;2023-02-03T09:36:07;98422.78;;;5.12;86.41
26083;BME280;13848;49.018;12.078;2023-02-03T09:38:33;98415.75;;;5.19;85.38
26083;BME280;13848;49.018;12.078;2023-02-03T09:41:03;98430.47;;;5.06;86.05
26083;BME280;13848;49.018;12.078;2023-02-03T09:43:40;98445.66;;;5.14;86.15
26083;BME280;13848;49.018;12.078;2023-02-03T09:46:12;98441.13;;;5.15;85.99
26083;BME280;13848;49.018;12.078;2023-02-03T09:48:43;98442.78;;;5.16;86.61
26083;BME280;13848;49.018;12.078;2023-02-03T09:51:18;98433.78;;;5.08;86.38
26083;BME280;13848;49.018;12.078;2023-02-03T09:53:49;98440.00;;;5.01;86.37
26083;BME280;13848;49.018;12.078;2023-02-03T09:56:24;98428.81;;;5.05;85.74
26083;BME280;13848;49.018;12.078;2023-02-03T09:58:51;98420.28;;;5.02;85.81
26083;BME280;13848;49.018;12.078;2023-02-03T10:01:18;98429.13;;;5.02;86.63
26083;BME280;13848;49.018;12.078;2023-02-03T10:03:50;98425.63;;;5.02;86.61
26083;BME280;13848;49.018;12.078;2023-02-03T10:06:23;98428.28;;;5.02;86.03
26083;BME280;13848;49.018;12.078;2023-02-03T10:09:18;98415.75;;;5.02;86.76
26083;BME280;13848;49.018;12.078;2023-02-03T10:11:55;98413.09;;;5.02;85.92
26083;BME280;13848;49.018;12.078;2023-02-03T10:14:40;98411.09;;;5.04;86.30
26083;BME280;13848;49.018;12.078;2023-02-03T10:17:20;98414.91;;;5.10;86.33
26083;BME280;13848;49.018;12.078;2023-02-03T10:19:54;98416.41;;;5.13;86.10
26083;BME280;13848;49.018;12.078;2023-02-03T10:22:24;98411.41;;;5.18;86.05
26083;BME280;13848;49.018;12.078;2023-02-03T10:24:54;98407.41;;;5.22;85.63
26083;BME280;13848;49.018;12.078;2023-02-03T10:27:23;98407.72;;;5.19;86.47
26083;BME280;13848;49.018;12.078;2023-02-03T10:29:54;98407.41;;;5.22;85.49
26083;BME280;13848;49.018;12.078;2023-02-03T10:32:22;98419.38;;;5.42;84.86
26083;BME280;13848;49.018;12.078;2023-02-03T10:34:48;98415.34;;;5.46;84.72
26083;BME280;13848;49.018;12.078;2023-02-03T10:37:23;98413.38;;;5.40;85.41
26083;BME280;13848;49.018;12.078;2023-02-03T10:39:52;98426.91;;;5.30;84.81
26083;BME280;13848;49.018;12.078;2023-02-03T10:42:20;98400.38;;;5.29;84.45
26083;BME280;13848;49.018;12.078;2023-02-03T10:44:48;98396.34;;;5.25;84.32
26083;BME280;13848;49.018;12.078;2023-02-03T10:47:22;98377.97;;;5.30;84.11
26083;BME280;13848;49.018;12.078;2023-02-03T10:49:51;98371.59;;;5.31;84.77
26083;BME280;13848;49.018;12.078;2023-02-03T10:52:27;98361.88;;;5.38;84.31
26083;BME280;13848;49.018;12.078;2023-02-03T10:54:54;98347.50;;;5.47;84.11
26083;BME280;13848;49.018;12.078;2023-02-03T10:57:20;98336.16;;;5.45;83.21
26083;BME280;13848;49.018;12.078;2023-02-03T10:59:47;98333.94;;;5.49;83.55
26083;BME280;13848;49.018;12.078;2023-02-03T11:02:21;98345.97;;;5.53;83.45
26083;BME280;13848;49.018;12.078;2023-02-03T11:05:07;98343.47;;;5.51;83.38
26083;BME280;13848;49.018;12.078;2023-02-03T11:07:34;98336.44;;;5.50;83.84
26083;BME280;13848;49.018;12.078;2023-02-03T11:10:00;98351.50;;;5.43;84.41
26083;BME280;13848;49.018;12.078;2023-02-03T11:12:26;98328.13;;;5.37;84.60
26083;BME280;13848;49.018;12.078;2023-02-03T11:14:53;98329.28;;;5.43;83.27
26083;BME280;13848;49.018;12.078;2023-02-03T11:17:20;98317.44;;;5.45;84.41
26083;BME280;13848;49.018;12.078;2023-02-03T11:19:47;98321.09;;;5.44;83.42
26083;BME280;13848;49.018;12.078;2023-02-03T11:22:26;98308.41;;;5.38;84.08
26083;BME280;13848;49.018;12.078;2023-02-03T11:24:54;98308.38;;;5.46;84.34
26083;BME280;13848;49.018;12.078;2023-02-03T11:27:21;98300.88;;;5.42;83.74
26083;BME280;13848;49.018;12.078;2023-02-03T11:29:49;98306.09;;;5.35;83.68
26083;BME280;13848;49.018;12.078;2023-02-03T11:32:18;98288.34;;;5.42;83.84
26083;BME280;13848;49.018;12.078;2023-02-03T11:34:47;98272.91;;;5.52;83.29
26083;BME280;13848;49.018;12.078;2023-02-03T11:37:26;98276.13;;;5.48;83.47
26083;BME280;13848;49.018;12.078;2023-02-03T11:40:24;98271.81;;;5.39;83.26
26083;BME280;13848;49.018;12.078;2023-02-03T11:43:02;98255.09;;;5.37;82.46
26083;BME280;13848;49.018;12.078;2023-02-03T11:45:34;98244.41;;;5.37;83.00
26083;BME280;13848;49.018;12.078;2023-02-03T11:48:14;98232.19;;;5.42;82.83
26083;BME280;13848;49.018;12.078;2023-02-03T11:50:44;98230.88;;;5.38;83.59
26083;BME280;13848;49.018;12.078;2023-02-03T11:53:28;98230.88;;;5.38;83.02
26083;BME280;13848;49.018;12.078;2023-02-03T11:56:17;98235.88;;;5.41;83.68
26083;BME280;13848;49.018;12.078;2023-02-03T11:59:04;98228.16;;;5.46;83.50
26083;BME280;13848;49.018;12.078;2023-02-03T12:01:47;98229.00;;;5.47;83.54
26083;BME280;13848;49.018;12.078;2023-02-03T12:04:27;98245.16;;;5.53;83.18
26083;BME280;13848;49.018;12.078;2023-02-03T12:07:22;98238.97;;;5.53;82.25
26083;BME280;13848;49.018;12.078;2023-02-03T12:09:57;98238.47;;;5.57;82.22
26083;BME280;13848;49.018;12.078;2023-02-03T12:12:39;98235.41;;;5.60;82.67
26083;BME280;13848;49.018;12.078;2023-02-03T12:15:23;98224.97;;;5.74;82.85
26083;BME280;13848;49.018;12.078;2023-02-03T12:17:54;98251.63;;;5.90;82.43
26083;BME280;13848;49.018;12.078;2023-02-03T12:20:34;98219.91;;;5.79;83.03
26083;BME280;13848;49.018;12.078;2023-02-03T12:23:10;98217.53;;;5.84;82.69
26083;BME280;13848;49.018;12.078;2023-02-03T12:25:51;98222.34;;;5.88;83.45
26083;BME280;13848;49.018;12.078;2023-02-03T12:28:38;98222.06;;;5.83;83.37
26083;BME280;13848;49.018;12.078;2023-02-03T12:31:11;98217.34;;;5.85;82.77
26083;BME280;13848;49.018;12.078;2023-02-03T12:33:41;98213.31;;;5.90;83.32
26083;BME280;13848;49.018;12.078;2023-02-03T12:36:10;98204.84;;;5.86;81.97
26083;BME280;13848;49.018;12.078;2023-02-03T12:38:43;98200.47;;;5.85;82.48
26083;BME280;13848;49.018;12.078;2023-02-03T12:41:12;98209.50;;;5.84;82.58
26083;BME280;13848;49.018;12.078;2023-02-03T12:43:43;98207.84;;;5.83;82.75
26083;BME280;13848;49.018;12.078;2023-02-03T12:46:15;98212.47;;;5.97;81.31
26083;BME280;13848;49.018;12.078;2023-02-03T12:48:44;98201.19;;;5.79;81.41
26083;BME280;13848;49.018;12.078;2023-02-03T12:51:25;98194.53;;;5.75;81.75
26083;BME280;13848;49.018;12.078;2023-02-03T12:53:56;98185.69;;;5.74;81.63
26083;BME280;13848;49.018;12.078;2023-02-03T12:56:26;98171.81;;;5.71;80.94
26083;BME280;13848;49.018;12.078;2023-02-03T12:58:57;98150.44;;;5.71;81.75
26083;BME280;13848;49.018;12.078;2023-02-03T13:01:27;98124.69;;;5.70;80.77
26083;BME280;13848;49.018;12.078;2023-02-03T13:04:02;98131.41;;;5.66;81.98
26083;BME280;13848;49.018;12.078;2023-02-03T13:06:33;98130.19;;;5.68;81.63
26083;BME280;13848;49.018;12.078;2023-02-03T13:09:21;98115.00;;;5.69;80.86
26083;BME280;13848;49.018;12.078;2023-02-03T13:11:52;98096.09;;;5.70;81.07
26083;BME280;13848;49.018;12.078;2023-02-03T13:14:23;98090.25;;;5.67;81.33